createdAt,value
2022-12-31T00:02:36.932Z,12.50
2022-12-31T00:05:40.015Z,12.90
2022-12-31T00:08:43.546Z,13.32
2022-12-31T00:11:46.865Z,15.00
2022-12-31T00:14:49.698Z,13.83
2022-12-31T00:17:52.667Z,13.15
2022-12-31T00:20:57.814Z,13.38
2022-12-31T00:24:01.339Z,13.27
2022-12-31T00:27:04.177Z,13.88
2022-12-31T00:30:07.783Z,14.40
2022-12-31T00:33:10.614Z,14.32
2022-12-31T00:36:22.356Z,13.90
2022-12-31T00:39:25.173Z,13.35
2022-12-31T00:42:28.084Z,13.27
2022-12-31T00:45:30.993Z,13.40
2022-12-31T00:48:34.921Z,13.38
2022-12-31T00:51:37.915Z,13.35
2022-12-31T00:54:40.768Z,12.82
2022-12-31T00:57:43.695Z,13.27
2022-12-31T01:00:46.546Z,13.40
2022-12-31T01:03:51.343Z,13.20
2022-12-31T01:06:54.496Z,12.25
2022-12-31T01:09:57.341Z,13.57
2022-12-31T01:13:00.546Z,12.25
2022-12-31T01:16:12.342Z,11.90
2022-12-31T01:19:24.629Z,11.23
2022-12-31T01:22:27.799Z,11.12
2022-12-31T01:25:30.676Z,12.27
2022-12-31T01:28:34.059Z,11.60
2022-12-31T01:31:44.000Z,19.70
2022-12-31T01:34:47.890Z,18.45
2022-12-31T01:37:50.945Z,13.85
2022-12-31T01:40:54.094Z,13.32
2022-12-31T01:44:00.256Z,15.43
2022-12-31T01:47:04.592Z,17.63
2022-12-31T01:50:15.279Z,14.38
2022-12-31T01:53:18.713Z,14.40
2022-12-31T01:56:22.794Z,15.10
2022-12-31T01:59:27.590Z,14.93
2022-12-31T02:02:30.590Z,16.90
2022-12-31T02:05:41.111Z,19.08
2022-12-31T02:08:44.577Z,17.35
2022-12-31T02:11:48.488Z,18.17
2022-12-31T02:14:52.987Z,17.35
2022-12-31T02:18:05.322Z,17.33
2022-12-31T02:21:13.739Z,16.40
2022-12-31T02:24:39.609Z,17.75
2022-12-31T02:28:20.966Z,16.48
2022-12-31T02:31:36.446Z,17.37
2022-12-31T02:34:47.122Z,15.93
2022-12-31T02:37:54.151Z,17.20
2022-12-31T02:40:57.891Z,16.33
2022-12-31T02:44:00.996Z,17.62
2022-12-31T02:47:13.635Z,17.77
2022-12-31T02:50:55.785Z,16.63
2022-12-31T02:54:08.024Z,17.42
2022-12-31T02:57:13.721Z,16.62
2022-12-31T03:00:36.380Z,17.77
2022-12-31T03:03:39.888Z,16.98
2022-12-31T03:06:43.340Z,17.93
2022-12-31T03:09:46.433Z,17.48
2022-12-31T03:12:49.786Z,16.48
2022-12-31T03:15:52.852Z,16.92
2022-12-31T03:19:14.613Z,16.75
2022-12-31T03:22:29.408Z,15.87
2022-12-31T03:25:35.752Z,15.23
2022-12-31T03:28:40.730Z,15.65
2022-12-31T03:31:43.615Z,18.10
2022-12-31T03:34:46.530Z,19.00
2022-12-31T03:37:52.348Z,16.37
2022-12-31T03:40:55.544Z,17.90
2022-12-31T03:43:58.320Z,16.45
2022-12-31T03:47:01.080Z,16.80
2022-12-31T03:50:05.990Z,15.82
2022-12-31T03:53:08.912Z,15.33
2022-12-31T03:56:11.720Z,15.38
2022-12-31T03:59:14.788Z,15.45
2022-12-31T04:02:18.557Z,16.05
2022-12-31T04:05:27.864Z,15.93
2022-12-31T04:08:30.669Z,15.97
2022-12-31T04:11:33.552Z,15.98
2022-12-31T04:14:36.525Z,16.58
2022-12-31T04:17:39.390Z,15.30
2022-12-31T04:20:42.389Z,15.90
2022-12-31T04:23:47.460Z,15.83
2022-12-31T04:26:50.657Z,17.37
2022-12-31T04:29:53.507Z,17.02
2022-12-31T04:32:56.288Z,17.85
2022-12-31T04:36:03.209Z,19.98
2022-12-31T04:39:06.665Z,20.03
2022-12-31T04:42:09.648Z,19.33
2022-12-31T04:45:12.528Z,21.60
2022-12-31T04:48:18.229Z,23.85
2022-12-31T04:51:22.037Z,20.98
2022-12-31T04:54:24.912Z,21.13
2022-12-31T04:57:27.843Z,20.20
2022-12-31T05:00:30.695Z,19.55
2022-12-31T05:03:33.863Z,27.67
2022-12-31T05:06:36.981Z,25.95
2022-12-31T05:09:39.831Z,24.80
2022-12-31T05:12:42.627Z,26.05
2022-12-31T05:15:48.910Z,22.40
2022-12-31T05:18:51.871Z,20.80
2022-12-31T05:22:13.200Z,21.70
2022-12-31T05:25:16.325Z,19.33
2022-12-31T05:28:22.695Z,18.90
2022-12-31T05:31:25.479Z,19.65
2022-12-31T05:34:28.436Z,18.33
2022-12-31T05:37:31.959Z,19.00
2022-12-31T05:40:34.850Z,18.80
2022-12-31T05:43:37.699Z,19.02
2022-12-31T05:46:40.629Z,18.98
2022-12-31T05:49:43.674Z,17.55
2022-12-31T05:52:49.782Z,19.33
2022-12-31T05:55:52.794Z,18.33
2022-12-31T05:58:55.656Z,19.35
2022-12-31T06:01:58.740Z,29.48
2022-12-31T06:05:01.589Z,28.12
2022-12-31T06:08:04.651Z,20.88
2022-12-31T06:11:07.494Z,16.47
2022-12-31T06:14:10.493Z,17.55
2022-12-31T06:17:13.514Z,16.08
2022-12-31T06:20:16.561Z,17.85
2022-12-31T06:23:19.614Z,18.42
2022-12-31T06:26:22.516Z,16.90
2022-12-31T06:29:25.562Z,17.45
2022-12-31T06:32:28.474Z,19.55
2022-12-31T06:35:31.299Z,18.92
2022-12-31T06:38:38.781Z,18.23
2022-12-31T06:41:41.710Z,18.40
2022-12-31T06:44:44.574Z,17.83
2022-12-31T06:47:49.648Z,20.80
2022-12-31T06:50:52.602Z,18.33
2022-12-31T06:53:55.585Z,18.17
2022-12-31T06:57:01.868Z,18.47
2022-12-31T07:00:05.663Z,20.00
2022-12-31T07:03:14.517Z,21.60
2022-12-31T07:06:23.471Z,21.50
2022-12-31T07:10:04.053Z,21.12
2022-12-31T07:13:31.906Z,26.10
2022-12-31T07:16:57.417Z,22.62
2022-12-31T07:20:10.628Z,97.18
2022-12-31T07:23:13.780Z,51.03
2022-12-31T07:26:23.160Z,27.15
2022-12-31T07:29:47.920Z,22.87
2022-12-31T07:33:00.182Z,22.25
2022-12-31T07:36:12.993Z,38.40
2022-12-31T07:39:27.640Z,33.75
2022-12-31T07:43:03.122Z,28.08
2022-12-31T07:46:32.547Z,27.93
2022-12-31T07:49:38.025Z,30.05
2022-12-31T07:52:41.235Z,27.35
2022-12-31T07:55:44.278Z,29.33
2022-12-31T07:59:44.621Z,25.10
2022-12-31T08:02:50.548Z,26.27
2022-12-31T08:06:11.753Z,28.08
2022-12-31T08:09:53.119Z,30.37
2022-12-31T08:13:04.529Z,33.58
2022-12-31T08:16:11.580Z,53.08
2022-12-31T08:19:25.039Z,36.10
2022-12-31T08:22:59.969Z,34.53
2022-12-31T08:26:11.891Z,30.88
2022-12-31T08:29:27.488Z,29.67
2022-12-31T08:32:44.182Z,28.98
2022-12-31T08:35:58.381Z,30.57
2022-12-31T08:39:38.716Z,31.05
2022-12-31T08:42:48.287Z,29.50
2022-12-31T08:45:54.683Z,37.45
2022-12-31T08:48:57.944Z,30.12
2022-12-31T08:52:02.219Z,26.23
2022-12-31T08:55:05.767Z,26.33
2022-12-31T08:58:27.325Z,26.35
2022-12-31T09:01:37.288Z,29.27
2022-12-31T09:08:17.246Z,26.30
2022-12-31T09:11:48.746Z,25.70
2022-12-31T09:14:58.598Z,25.55
2022-12-31T09:18:01.592Z,28.42
2022-12-31T09:21:04.634Z,31.23
2022-12-31T09:24:09.687Z,31.40
2022-12-31T09:27:25.606Z,29.08
2022-12-31T09:30:37.903Z,26.10
2022-12-31T09:33:59.206Z,25.98
2022-12-31T09:37:15.676Z,27.42
2022-12-31T09:40:50.739Z,28.77
2022-12-31T09:44:24.654Z,22.27
2022-12-31T09:47:46.607Z,20.77
2022-12-31T09:51:11.339Z,24.58
2022-12-31T09:54:27.615Z,21.62
2022-12-31T09:57:40.992Z,19.23
2022-12-31T10:00:53.019Z,21.15
2022-12-31T10:04:18.008Z,23.95
2022-12-31T10:07:29.923Z,22.50
2022-12-31T10:10:51.637Z,19.30
2022-12-31T10:14:19.093Z,20.40
2022-12-31T10:17:40.208Z,20.67
2022-12-31T10:21:07.051Z,23.02
2022-12-31T10:24:43.154Z,20.58
2022-12-31T10:28:31.130Z,20.05
2022-12-31T10:32:14.069Z,17.80
2022-12-31T10:35:29.773Z,17.80
2022-12-31T10:38:55.729Z,16.20
2022-12-31T10:42:24.015Z,16.50
2022-12-31T10:46:05.505Z,17.23
2022-12-31T10:49:45.083Z,19.00
2022-12-31T10:52:54.034Z,19.10
2022-12-31T10:56:11.955Z,19.92
2022-12-31T10:59:43.148Z,17.58
2022-12-31T11:03:04.783Z,16.37
2022-12-31T11:06:36.835Z,17.03
2022-12-31T11:10:14.897Z,15.52
2022-12-31T11:13:29.697Z,16.23
2022-12-31T11:16:41.439Z,16.40
2022-12-31T11:19:59.304Z,16.52
2022-12-31T11:23:04.922Z,15.40
2022-12-31T11:26:19.867Z,16.83
2022-12-31T11:30:15.193Z,15.82
2022-12-31T11:33:36.872Z,18.12
2022-12-31T11:36:58.138Z,17.35
2022-12-31T11:40:31.770Z,15.83
2022-12-31T11:43:39.351Z,16.75
2022-12-31T11:47:02.299Z,16.10
2022-12-31T11:50:59.829Z,52.05
2022-12-31T11:54:25.373Z,18.85
2022-12-31T11:57:34.468Z,16.93
2022-12-31T12:00:38.681Z,17.17
2022-12-31T12:03:43.945Z,18.42
2022-12-31T12:06:46.727Z,16.58
2022-12-31T12:09:50.696Z,15.82
2022-12-31T12:12:55.684Z,17.53
2022-12-31T12:16:00.898Z,18.40
2022-12-31T12:19:08.566Z,16.98
2022-12-31T12:22:13.852Z,16.20
2022-12-31T12:25:22.693Z,16.80
2022-12-31T12:28:28.776Z,18.77
2022-12-31T12:31:34.384Z,17.60
2022-12-31T12:34:43.116Z,18.17
2022-12-31T12:37:59.543Z,16.12
2022-12-31T12:41:05.755Z,16.25
2022-12-31T12:44:14.353Z,19.40
2022-12-31T12:47:18.712Z,16.20
2022-12-31T12:50:25.215Z,16.23
2022-12-31T12:53:48.048Z,17.92
2022-12-31T12:57:16.177Z,18.20
2022-12-31T13:00:21.587Z,17.90
2022-12-31T13:04:14.672Z,17.40
2022-12-31T13:07:40.622Z,16.67
2022-12-31T13:10:58.394Z,15.77
2022-12-31T13:14:10.427Z,15.90
2022-12-31T13:17:32.840Z,15.63
2022-12-31T13:20:38.819Z,17.62
2022-12-31T13:23:52.160Z,17.92
2022-12-31T13:27:15.608Z,15.45
2022-12-31T13:30:45.874Z,15.52
2022-12-31T13:33:59.806Z,17.30
2022-12-31T13:37:18.586Z,17.77
2022-12-31T13:40:26.174Z,17.67
2022-12-31T13:43:35.550Z,16.83
2022-12-31T13:46:45.678Z,17.10
2022-12-31T13:50:14.305Z,15.23
2022-12-31T13:53:23.407Z,14.73
2022-12-31T13:56:34.646Z,16.05
2022-12-31T13:59:41.461Z,14.48
2022-12-31T14:02:53.562Z,8.73
2022-12-31T14:06:04.260Z,10.73
2022-12-31T14:09:08.310Z,14.52
2022-12-31T14:12:11.099Z,22.90
2022-12-31T14:15:37.165Z,23.67
2022-12-31T14:18:55.559Z,17.08
2022-12-31T14:22:06.564Z,11.67
2022-12-31T14:25:36.408Z,7.95
2022-12-31T14:28:47.595Z,5.37
2022-12-31T14:31:52.026Z,4.25
2022-12-31T14:35:30.094Z,3.97
2022-12-31T14:38:57.889Z,4.30
2022-12-31T14:42:38.500Z,3.90
2022-12-31T14:45:54.642Z,4.72
2022-12-31T14:49:01.613Z,3.78
2022-12-31T14:52:48.114Z,5.25
2022-12-31T14:56:03.041Z,3.77
2022-12-31T14:59:29.005Z,3.72
2022-12-31T15:02:34.713Z,3.72
2022-12-31T15:05:39.083Z,3.37
2022-12-31T15:09:16.093Z,3.90
2022-12-31T15:12:45.388Z,3.87
2022-12-31T15:16:39.423Z,29.33
2022-12-31T15:20:22.574Z,28.25
2022-12-31T15:23:39.924Z,28.70
2022-12-31T15:26:57.506Z,10.48
2022-12-31T15:30:00.707Z,4.27
2022-12-31T15:33:08.721Z,4.70
2022-12-31T15:36:40.973Z,8.43
2022-12-31T15:39:44.689Z,4.78
2022-12-31T15:42:52.765Z,4.93
2022-12-31T15:45:56.295Z,4.67
2022-12-31T15:49:10.244Z,5.07
2022-12-31T15:52:40.947Z,4.57
2022-12-31T15:55:47.043Z,4.80
2022-12-31T15:58:52.006Z,4.62
2022-12-31T16:01:58.297Z,4.83
2022-12-31T16:05:01.582Z,4.90
2022-12-31T16:08:04.751Z,4.87
2022-12-31T16:11:11.423Z,4.60
2022-12-31T16:14:29.697Z,4.45
2022-12-31T16:17:37.146Z,4.83
2022-12-31T16:20:44.965Z,4.97
2022-12-31T16:23:53.019Z,4.50
2022-12-31T16:26:59.217Z,5.15
2022-12-31T16:30:07.340Z,4.50
2022-12-31T16:33:15.175Z,4.07
2022-12-31T16:36:24.033Z,4.55
2022-12-31T16:39:32.232Z,4.32
2022-12-31T16:42:44.142Z,4.20
2022-12-31T16:45:47.381Z,4.50
2022-12-31T16:48:56.225Z,4.50
2022-12-31T16:52:25.417Z,4.28
2022-12-31T16:55:30.222Z,4.68
2022-12-31T16:58:35.410Z,4.15
2022-12-31T17:01:39.062Z,4.07
2022-12-31T17:04:55.397Z,4.30
2022-12-31T17:08:19.066Z,4.75
2022-12-31T17:11:31.055Z,4.32
2022-12-31T17:14:49.122Z,4.87
2022-12-31T17:17:58.835Z,5.03
2022-12-31T17:21:11.222Z,4.60
2022-12-31T17:24:14.236Z,5.40
2022-12-31T17:27:17.164Z,8.02
2022-12-31T17:30:40.545Z,4.65
2022-12-31T17:33:43.496Z,4.90
2022-12-31T17:36:59.769Z,5.20
2022-12-31T17:40:49.958Z,10.63
2022-12-31T17:43:33.068Z,4.80
2022-12-31T17:46:38.955Z,4.15
2022-12-31T17:49:45.904Z,4.32
2022-12-31T17:52:48.972Z,4.50
2022-12-31T17:55:56.313Z,4.43
2022-12-31T17:59:00.696Z,4.25
2022-12-31T18:02:04.333Z,4.40
2022-12-31T18:05:18.883Z,4.60
2022-12-31T18:08:21.664Z,4.53
2022-12-31T18:11:25.113Z,4.50
2022-12-31T18:14:27.798Z,4.37
2022-12-31T18:17:30.609Z,4.82
2022-12-31T18:20:33.921Z,4.35
2022-12-31T18:23:47.786Z,4.40
2022-12-31T18:26:54.066Z,4.40
2022-12-31T18:30:04.091Z,4.68
2022-12-31T18:33:07.771Z,4.60
2022-12-31T18:36:13.214Z,4.40
2022-12-31T18:39:15.967Z,4.10
2022-12-31T18:42:19.552Z,4.30
2022-12-31T18:45:22.230Z,4.03
2022-12-31T18:48:25.280Z,3.80
2022-12-31T18:51:31.994Z,4.00
2022-12-31T18:54:35.254Z,3.60
2022-12-31T18:57:41.118Z,3.62
2022-12-31T19:00:44.815Z,4.20
2022-12-31T19:03:48.014Z,3.97
2022-12-31T19:06:51.096Z,4.30
2022-12-31T19:09:58.515Z,3.47
2022-12-31T19:13:04.608Z,3.80
2022-12-31T19:16:08.029Z,3.50
2022-12-31T19:19:11.177Z,3.33
2022-12-31T19:22:15.720Z,3.22
2022-12-31T19:25:24.556Z,3.27
2022-12-31T19:28:28.110Z,3.00
2022-12-31T19:31:31.303Z,3.65
2022-12-31T19:34:34.127Z,2.90
2022-12-31T19:37:36.931Z,3.30
2022-12-31T19:40:40.852Z,3.00
2022-12-31T19:43:44.210Z,3.00
2022-12-31T19:46:49.447Z,3.25
2022-12-31T19:49:55.275Z,3.05
2022-12-31T19:52:59.445Z,3.03
2022-12-31T19:56:05.875Z,2.37
2022-12-31T19:59:10.132Z,2.70
2022-12-31T20:02:13.503Z,2.60
2022-12-31T20:05:17.198Z,3.00
2022-12-31T20:08:23.076Z,2.75
2022-12-31T20:11:26.100Z,2.80
2022-12-31T20:14:29.001Z,2.78
2022-12-31T20:17:35.815Z,2.60
2022-12-31T20:20:38.688Z,2.37
2022-12-31T20:23:41.804Z,2.70
2022-12-31T20:26:44.672Z,2.60
2022-12-31T20:29:47.407Z,2.50
2022-12-31T20:32:52.857Z,2.70
2022-12-31T20:35:55.632Z,2.60
2022-12-31T20:38:58.969Z,2.72
2022-12-31T20:42:01.767Z,2.57
2022-12-31T20:45:05.016Z,2.47
2022-12-31T20:48:07.752Z,2.95
2022-12-31T20:51:11.436Z,2.47
2022-12-31T20:54:14.278Z,2.30
2022-12-31T20:57:17.090Z,2.50
2022-12-31T21:00:20.949Z,2.83
2022-12-31T21:04:03.174Z,2.75
2022-12-31T21:06:49.591Z,2.72
2022-12-31T21:09:52.584Z,2.55
2022-12-31T21:12:55.602Z,2.50
2022-12-31T21:16:01.475Z,2.40
2022-12-31T21:19:04.444Z,2.58
2022-12-31T21:22:07.332Z,2.08
2022-12-31T21:25:11.030Z,2.42
2022-12-31T21:28:14.116Z,2.60
2022-12-31T21:31:16.978Z,2.30
2022-12-31T21:34:19.814Z,2.90
2022-12-31T21:37:22.661Z,2.70
2022-12-31T21:40:25.600Z,2.60
2022-12-31T21:43:28.683Z,2.70
2022-12-31T21:46:31.820Z,3.00
2022-12-31T21:49:34.724Z,2.50
2022-12-31T21:52:38.235Z,2.58
2022-12-31T21:56:00.070Z,2.80
2022-12-31T21:59:21.395Z,2.60
2022-12-31T22:02:42.717Z,2.37
2022-12-31T22:06:11.198Z,2.25
2022-12-31T22:09:14.753Z,2.20
2022-12-31T22:12:17.576Z,2.42
2022-12-31T22:15:20.822Z,2.20
2022-12-31T22:18:24.013Z,2.50
2022-12-31T22:21:27.849Z,2.40
2022-12-31T22:24:33.849Z,2.53
2022-12-31T22:27:36.884Z,2.58
2022-12-31T22:30:39.761Z,2.17
2022-12-31T22:33:46.309Z,2.15
2022-12-31T22:36:49.134Z,2.40
2022-12-31T22:39:52.652Z,2.05
2022-12-31T22:42:55.770Z,2.80
2022-12-31T22:45:58.667Z,2.97
2022-12-31T22:49:03.217Z,2.75
2022-12-31T22:52:08.816Z,2.40
2022-12-31T22:55:14.629Z,2.05
2022-12-31T22:58:19.979Z,2.30
2022-12-31T23:01:25.034Z,2.00
2022-12-31T23:04:27.868Z,1.98
2022-12-31T23:07:33.676Z,2.25
2022-12-31T23:10:58.047Z,5.37
2022-12-31T23:14:20.044Z,6.75
2022-12-31T23:17:43.851Z,6.23
2022-12-31T23:21:05.108Z,9.75
2022-12-31T23:24:13.637Z,9.07
2022-12-31T23:27:24.853Z,7.93
2022-12-31T23:30:27.784Z,6.22
2022-12-31T23:33:30.694Z,4.07
2022-12-31T23:36:33.481Z,3.65
2022-12-31T23:39:36.348Z,2.70
2022-12-31T23:42:39.273Z,2.90
2022-12-31T23:45:42.141Z,2.70
2022-12-31T23:48:45.003Z,2.53
2022-12-31T23:51:48.634Z,2.25
2022-12-31T23:54:51.534Z,2.80
2022-12-31T23:57:57.650Z,2.12
